createdAt,value
2019-03-24T00:00:53.794Z,9.10
2019-03-24T00:01:53.782Z,9.18
2019-03-24T00:02:53.753Z,9.14
2019-03-24T00:03:53.741Z,9.17
2019-03-24T00:04:53.740Z,9.17
2019-03-24T00:05:53.729Z,9.15
2019-03-24T00:06:53.736Z,9.21
2019-03-24T00:07:53.697Z,9.08
2019-03-24T00:08:53.687Z,9.17
2019-03-24T00:09:53.674Z,9.14
2019-03-24T00:10:53.662Z,9.02
2019-03-24T00:11:53.658Z,9.08
2019-03-24T00:12:53.645Z,9.14
2019-03-24T00:13:53.644Z,9.17
2019-03-24T00:14:53.617Z,9.17
2019-03-24T00:15:53.631Z,9.11
2019-03-24T00:16:53.666Z,9.10
2019-03-24T00:17:53.592Z,9.14
2019-03-24T00:18:53.590Z,9.21
2019-03-24T00:19:53.562Z,9.08
2019-03-24T00:20:53.550Z,9.04
2019-03-24T00:21:53.550Z,9.05
2019-03-24T00:22:53.533Z,8.99
2019-03-24T00:23:53.518Z,9.04
2019-03-24T00:24:53.528Z,9.05
2019-03-24T00:25:53.497Z,9.05
2019-03-24T00:26:53.499Z,9.02
2019-03-24T00:27:53.496Z,9.05
2019-03-24T00:28:53.460Z,8.98
2019-03-24T00:29:53.450Z,8.98
2019-03-24T00:30:53.443Z,9.10
2019-03-24T00:31:53.426Z,8.96
2019-03-24T00:32:53.426Z,8.99
2019-03-24T00:33:53.406Z,8.98
2019-03-24T00:34:53.392Z,9.04
2019-03-24T00:35:53.379Z,8.95
2019-03-24T00:36:53.409Z,8.95
2019-03-24T00:37:53.423Z,8.89
2019-03-24T00:38:53.430Z,9.02
2019-03-24T00:39:53.340Z,8.96
2019-03-24T00:40:53.345Z,8.96
2019-03-24T00:41:53.317Z,8.94
2019-03-24T00:42:53.330Z,8.91
2019-03-24T00:43:53.293Z,9.04
2019-03-24T00:44:53.320Z,8.95
2019-03-24T00:45:53.280Z,9.05
2019-03-24T00:46:53.264Z,8.89
2019-03-24T00:47:53.260Z,8.96
2019-03-24T00:48:53.233Z,9.02
2019-03-24T00:49:53.249Z,8.98
2019-03-24T00:50:53.217Z,8.94
2019-03-24T00:51:53.202Z,8.87
2019-03-24T00:52:53.203Z,8.86
2019-03-24T00:53:53.222Z,8.87
2019-03-24T00:54:53.201Z,8.89
2019-03-24T00:55:53.159Z,8.91
2019-03-24T00:56:53.151Z,8.87
2019-03-24T00:57:53.222Z,8.94
2019-03-24T00:58:53.136Z,8.94
2019-03-24T00:59:53.139Z,8.89
2019-03-24T01:00:53.127Z,8.84
2019-03-24T01:01:53.091Z,8.92
2019-03-24T01:02:53.075Z,8.76
2019-03-24T01:03:53.069Z,8.76
2019-03-24T01:04:53.105Z,8.81
2019-03-24T01:05:53.048Z,8.80
2019-03-24T01:06:53.029Z,8.80
2019-03-24T01:07:53.019Z,8.70
2019-03-24T01:08:53.023Z,8.65
2019-03-24T01:09:52.998Z,8.71
2019-03-24T01:10:53.035Z,8.70
2019-03-24T01:11:52.998Z,8.71
2019-03-24T01:12:52.966Z,8.70
2019-03-24T01:13:52.959Z,8.76
2019-03-24T01:14:52.946Z,8.68
2019-03-24T01:15:52.963Z,8.76
2019-03-24T01:16:52.939Z,8.65
2019-03-24T01:17:52.906Z,8.63
2019-03-24T01:18:52.902Z,8.68
2019-03-24T01:19:52.883Z,8.63
2019-03-24T01:20:52.871Z,8.62
2019-03-24T01:21:52.876Z,8.62
2019-03-24T01:22:52.863Z,8.52
2019-03-24T01:23:52.859Z,8.61
2019-03-24T01:24:52.830Z,8.59
2019-03-24T01:25:52.818Z,8.59
2019-03-24T01:26:52.820Z,8.56
2019-03-24T01:27:52.837Z,8.62
2019-03-24T01:28:52.820Z,8.56
2019-03-24T01:29:52.770Z,8.59
2019-03-24T01:30:52.761Z,8.61
2019-03-24T01:31:52.748Z,8.55
2019-03-24T01:32:52.742Z,8.56
2019-03-24T01:33:52.770Z,8.61
2019-03-24T01:34:52.746Z,8.45
2019-03-24T01:35:52.705Z,8.52
2019-03-24T01:36:52.693Z,8.48
2019-03-24T01:37:52.682Z,8.55
2019-03-24T01:38:52.687Z,8.48
2019-03-24T01:39:52.679Z,8.50
2019-03-24T01:40:52.647Z,8.55
2019-03-24T01:41:52.636Z,8.45
2019-03-24T01:42:52.652Z,8.52
2019-03-24T01:43:52.624Z,8.52
2019-03-24T01:44:52.652Z,8.52
2019-03-24T01:45:58.487Z,8.48
2019-03-24T01:46:53.585Z,8.40
2019-03-24T01:47:52.570Z,8.44
2019-03-24T01:48:52.578Z,8.34
2019-03-24T01:49:52.556Z,8.44
2019-03-24T01:50:52.551Z,8.37
2019-03-24T01:51:52.530Z,8.36
2019-03-24T01:52:52.513Z,8.40
2019-03-24T01:53:52.502Z,8.28
2019-03-24T01:54:52.500Z,8.34
2019-03-24T01:55:52.488Z,8.45
2019-03-24T01:56:52.488Z,8.36
2019-03-24T01:57:52.549Z,8.29
2019-03-24T01:58:52.494Z,8.37
2019-03-24T01:59:52.446Z,8.30
2019-03-24T02:00:52.429Z,8.43
2019-03-24T02:01:52.422Z,8.36
2019-03-24T02:02:52.411Z,8.34
2019-03-24T02:03:52.390Z,8.29
2019-03-24T02:04:52.394Z,8.29
2019-03-24T02:05:52.369Z,8.28
2019-03-24T02:06:52.361Z,8.28
2019-03-24T02:07:52.355Z,8.36
2019-03-24T02:08:52.346Z,8.33
2019-03-24T02:09:52.330Z,8.29
2019-03-24T02:10:52.314Z,8.28
2019-03-24T02:11:52.308Z,8.28
2019-03-24T02:12:52.292Z,8.23
2019-03-24T02:13:52.290Z,8.25
2019-03-24T02:14:52.284Z,8.26
2019-03-24T02:15:52.358Z,8.25
2019-03-24T02:16:52.243Z,8.22
2019-03-24T02:17:52.242Z,8.22
2019-03-24T02:18:52.227Z,8.22
2019-03-24T02:19:52.219Z,8.15
2019-03-24T02:20:52.203Z,8.15
2019-03-24T02:21:52.187Z,8.11
2019-03-24T02:22:52.179Z,8.16
2019-03-24T02:23:52.182Z,8.11
2019-03-24T02:24:52.170Z,8.15
2019-03-24T02:25:52.137Z,8.08
2019-03-24T02:26:52.125Z,8.10
2019-03-24T02:27:52.117Z,8.12
2019-03-24T02:28:52.111Z,8.10
2019-03-24T02:29:52.144Z,8.08
2019-03-24T02:30:52.111Z,8.08
2019-03-24T02:31:52.074Z,8.04
2019-03-24T02:32:52.065Z,8.16
2019-03-24T02:33:52.132Z,8.04
2019-03-24T02:34:52.040Z,8.05
2019-03-24T02:35:52.050Z,8.16
2019-03-24T02:36:52.029Z,8.04
2019-03-24T02:37:52.008Z,8.08
2019-03-24T02:38:52.013Z,8.04
2019-03-24T02:39:51.990Z,8.12
2019-03-24T02:40:51.985Z,8.04
2019-03-24T02:41:51.965Z,8.04
2019-03-24T02:42:51.955Z,8.01
2019-03-24T02:43:51.942Z,8.07
2019-03-24T02:44:51.931Z,8.04
2019-03-24T02:45:51.922Z,8.02
2019-03-24T02:46:51.915Z,8.02
2019-03-24T02:47:51.893Z,8.04
2019-03-24T02:48:51.876Z,8.08
2019-03-24T02:49:51.900Z,8.04
2019-03-24T02:50:51.881Z,8.05
2019-03-24T02:51:51.844Z,8.04
2019-03-24T02:52:51.843Z,8.04
2019-03-24T02:53:51.821Z,8.04
2019-03-24T02:54:51.812Z,8.01
2019-03-24T02:55:51.813Z,8.00
2019-03-24T02:56:51.788Z,7.92
2019-03-24T02:57:51.788Z,7.92
2019-03-24T02:58:51.766Z,8.01
2019-03-24T02:59:51.762Z,7.97
2019-03-24T03:00:51.753Z,7.92
2019-03-24T03:01:51.731Z,7.97
2019-03-24T03:02:51.720Z,7.90
2019-03-24T03:03:51.758Z,7.95
2019-03-24T03:04:51.724Z,7.98
2019-03-24T03:05:51.743Z,7.87
2019-03-24T03:06:51.682Z,7.95
2019-03-24T03:07:51.663Z,7.97
2019-03-24T03:08:51.653Z,7.95
2019-03-24T03:09:51.661Z,7.95
2019-03-24T03:10:51.744Z,7.93
2019-03-24T03:11:51.643Z,7.98
2019-03-24T03:12:51.606Z,7.90
2019-03-24T03:13:51.596Z,7.93
2019-03-24T03:14:51.598Z,7.95
2019-03-24T03:15:51.609Z,7.77
2019-03-24T03:16:51.568Z,7.83
2019-03-24T03:17:51.557Z,7.77
2019-03-24T03:18:51.550Z,7.87
2019-03-24T03:19:53.708Z,7.77
2019-03-24T03:20:51.515Z,7.79
2019-03-24T03:21:51.509Z,7.74
2019-03-24T03:22:51.492Z,7.72
2019-03-24T03:23:51.497Z,7.75
2019-03-24T03:24:51.482Z,7.74
2019-03-24T03:25:51.486Z,7.61
2019-03-24T03:26:51.486Z,7.68
2019-03-24T03:27:51.440Z,7.64
2019-03-24T03:28:51.429Z,7.60
2019-03-24T03:29:51.416Z,7.64
2019-03-24T03:30:51.614Z,7.58
2019-03-24T03:31:51.412Z,7.58
2019-03-24T03:32:51.427Z,7.55
2019-03-24T03:33:51.373Z,7.52
2019-03-24T03:34:51.361Z,7.50
2019-03-24T03:35:51.354Z,7.49
2019-03-24T03:36:51.369Z,7.48
2019-03-24T03:37:51.452Z,7.49
2019-03-24T03:38:51.315Z,7.53
2019-03-24T03:39:57.057Z,7.53
2019-03-24T03:40:52.298Z,7.57
2019-03-24T03:41:51.296Z,7.52
2019-03-24T03:42:51.333Z,7.49
2019-03-24T03:43:51.269Z,7.45
2019-03-24T03:44:51.253Z,7.48
2019-03-24T03:45:51.243Z,7.52
2019-03-24T03:46:53.003Z,7.39
2019-03-24T03:47:51.224Z,7.45
2019-03-24T03:48:51.204Z,7.37
2019-03-24T03:49:51.190Z,7.40
2019-03-24T03:50:51.208Z,7.42
2019-03-24T03:51:51.171Z,7.34
2019-03-24T03:52:51.162Z,7.32
2019-03-24T03:53:51.181Z,7.43
2019-03-24T03:54:51.179Z,7.42
2019-03-24T03:55:51.135Z,7.28
2019-03-24T03:56:51.128Z,7.37
2019-03-24T03:57:51.104Z,7.43
2019-03-24T03:58:51.091Z,7.30
2019-03-24T03:59:51.082Z,7.46
2019-03-24T04:00:51.071Z,7.28
2019-03-24T04:01:51.053Z,7.30
2019-03-24T04:02:51.082Z,7.30
2019-03-24T04:03:51.036Z,7.27
2019-03-24T04:04:51.079Z,7.30
2019-03-24T04:05:51.033Z,7.31
2019-03-24T04:06:51.003Z,7.30
2019-03-24T04:07:50.999Z,7.31
2019-03-24T04:08:50.980Z,7.30
2019-03-24T04:09:50.972Z,7.28
2019-03-24T04:10:50.955Z,7.28
2019-03-24T04:11:50.998Z,7.30
2019-03-24T04:12:50.948Z,7.27
2019-03-24T04:13:50.940Z,7.30
2019-03-24T04:14:51.001Z,7.34
2019-03-24T04:15:50.949Z,7.28
2019-03-24T04:16:50.888Z,7.25
2019-03-24T04:17:50.911Z,7.27
2019-03-24T04:18:50.871Z,7.21
2019-03-24T04:19:50.868Z,7.16
2019-03-24T04:20:50.863Z,7.23
2019-03-24T04:21:50.837Z,7.16
2019-03-24T04:22:50.858Z,7.28
2019-03-24T04:23:50.818Z,7.23
2019-03-24T04:24:50.814Z,7.21
2019-03-24T04:25:50.821Z,7.17
2019-03-24T04:26:50.841Z,7.21
2019-03-24T04:27:50.791Z,7.16
2019-03-24T04:28:50.755Z,7.17
2019-03-24T04:29:50.746Z,7.15
2019-03-24T04:30:50.734Z,7.13
2019-03-24T04:31:50.738Z,7.17
2019-03-24T04:32:50.712Z,7.13
2019-03-24T04:33:50.706Z,7.16
2019-03-24T04:34:50.687Z,7.17
2019-03-24T04:35:50.678Z,6.99
2019-03-24T04:36:50.668Z,7.05
2019-03-24T04:37:50.675Z,7.17
2019-03-24T04:38:50.686Z,7.02
2019-03-24T04:39:50.660Z,7.07
2019-03-24T04:40:50.637Z,7.05
2019-03-24T04:41:50.608Z,7.05
2019-03-24T04:42:50.603Z,6.98
2019-03-24T04:43:50.613Z,6.97
2019-03-24T04:44:50.581Z,7.03
2019-03-24T04:45:50.564Z,6.92
2019-03-24T04:46:50.551Z,7.03
2019-03-24T04:47:50.568Z,7.03
2019-03-24T04:48:50.554Z,6.98
2019-03-24T04:49:50.524Z,7.02
2019-03-24T04:50:50.507Z,6.99
2019-03-24T04:51:50.542Z,6.94
2019-03-24T04:52:50.493Z,6.99
2019-03-24T04:53:50.498Z,6.99
2019-03-24T04:54:50.507Z,7.05
2019-03-24T04:55:50.482Z,6.98
2019-03-24T04:56:50.462Z,6.99
2019-03-24T04:57:50.436Z,7.03
2019-03-24T04:58:50.421Z,7.06
2019-03-24T04:59:50.429Z,6.97
2019-03-24T05:00:50.407Z,7.02
2019-03-24T05:01:50.493Z,7.03
2019-03-24T05:02:50.373Z,7.02
2019-03-24T05:03:50.374Z,6.98
2019-03-24T05:04:50.383Z,7.03
2019-03-24T05:05:50.359Z,7.03
2019-03-24T05:06:50.355Z,6.97
2019-03-24T05:07:50.319Z,6.94
2019-03-24T05:08:50.314Z,6.92
2019-03-24T05:09:50.325Z,6.95
2019-03-24T05:10:50.287Z,6.94
2019-03-24T05:11:50.351Z,6.98
2019-03-24T05:12:50.325Z,6.85
2019-03-24T05:13:50.250Z,6.91
2019-03-24T05:14:50.255Z,6.88
2019-03-24T05:15:50.231Z,6.80
2019-03-24T05:16:50.219Z,6.88
2019-03-24T05:17:50.231Z,6.91
2019-03-24T05:18:50.194Z,6.85
2019-03-24T05:19:50.203Z,6.84
2019-03-24T05:20:50.175Z,6.84
2019-03-24T05:21:50.169Z,6.85
2019-03-24T05:22:50.179Z,6.85
2019-03-24T05:23:50.151Z,6.88
2019-03-24T05:24:50.297Z,6.87
2019-03-24T05:25:50.116Z,6.87
2019-03-24T05:26:50.105Z,6.84
2019-03-24T05:27:50.123Z,6.84
2019-03-24T05:28:50.107Z,6.81
2019-03-24T05:29:50.071Z,6.79
2019-03-24T05:30:50.063Z,6.81
2019-03-24T05:31:50.059Z,6.73
2019-03-24T05:32:50.116Z,6.81
2019-03-24T05:33:50.037Z,6.77
2019-03-24T05:34:50.036Z,6.80
2019-03-24T05:35:50.008Z,6.77
2019-03-24T05:36:50.073Z,6.74
2019-03-24T05:37:50.000Z,6.76
2019-03-24T05:38:49.978Z,6.77
2019-03-24T05:39:49.963Z,6.77
2019-03-24T05:40:49.950Z,6.76
2019-03-24T05:41:49.936Z,6.71
2019-03-24T05:42:49.933Z,6.77
2019-03-24T05:43:49.912Z,6.87
2019-03-24T05:44:49.906Z,6.81
2019-03-24T05:45:49.922Z,6.81
2019-03-24T05:46:49.913Z,6.81
2019-03-24T05:47:49.869Z,6.81
2019-03-24T05:48:49.872Z,6.77
2019-03-24T05:49:49.850Z,6.89
2019-03-24T05:50:49.867Z,6.81
2019-03-24T05:51:49.876Z,6.89
2019-03-24T05:52:49.822Z,6.88
2019-03-24T05:53:49.821Z,6.88
2019-03-24T05:54:49.788Z,6.99
2019-03-24T05:55:49.801Z,6.95
2019-03-24T05:56:49.802Z,6.98
2019-03-24T05:57:49.766Z,6.95
2019-03-24T05:58:49.750Z,6.95
2019-03-24T05:59:49.751Z,7.03
2019-03-24T06:00:49.743Z,7.03
2019-03-24T06:01:49.738Z,7.06
2019-03-24T06:02:49.701Z,7.07
2019-03-24T06:03:49.757Z,7.02
2019-03-24T06:04:49.693Z,7.15
2019-03-24T06:05:49.929Z,7.13
2019-03-24T06:06:49.659Z,7.13
2019-03-24T06:07:49.670Z,7.13
2019-03-24T06:08:49.647Z,7.17
2019-03-24T06:09:49.672Z,7.17
2019-03-24T06:10:49.641Z,7.23
2019-03-24T06:11:49.621Z,7.13
2019-03-24T06:12:49.592Z,7.16
2019-03-24T06:13:49.607Z,7.16
2019-03-24T06:14:49.573Z,7.28
2019-03-24T06:15:49.566Z,7.23
2019-03-24T06:16:49.582Z,7.30
2019-03-24T06:17:49.536Z,7.31
2019-03-24T06:18:49.526Z,7.30
2019-03-24T06:19:49.510Z,7.37
2019-03-24T06:20:49.508Z,7.32
2019-03-24T06:21:49.502Z,7.45
2019-03-24T06:22:49.483Z,7.35
2019-03-24T06:23:49.471Z,7.48
2019-03-24T06:24:49.468Z,7.49
2019-03-24T06:25:49.451Z,7.45
2019-03-24T06:26:49.497Z,7.48
2019-03-24T06:27:49.425Z,7.50
2019-03-24T06:28:49.418Z,7.60
2019-03-24T06:29:49.398Z,7.60
2019-03-24T06:30:49.393Z,7.58
2019-03-24T06:31:49.411Z,7.69
2019-03-24T06:32:49.448Z,7.61
2019-03-24T06:33:49.355Z,7.61
2019-03-24T06:34:49.365Z,7.68
2019-03-24T06:35:49.342Z,7.72
2019-03-24T06:36:49.333Z,7.82
2019-03-24T06:37:49.310Z,7.74
2019-03-24T06:38:49.300Z,7.80
2019-03-24T06:39:49.295Z,7.77
2019-03-24T06:40:49.283Z,7.93
2019-03-24T06:41:49.275Z,7.90
2019-03-24T06:42:49.252Z,8.04
2019-03-24T06:43:49.241Z,8.01
2019-03-24T06:44:49.231Z,8.04
2019-03-24T06:45:49.224Z,8.02
2019-03-24T06:46:49.533Z,8.12
2019-03-24T06:47:57.594Z,8.08
2019-03-24T06:48:50.188Z,8.08
2019-03-24T06:49:49.201Z,8.18
2019-03-24T06:50:49.162Z,8.18
2019-03-24T06:51:49.166Z,8.18
2019-03-24T06:52:49.139Z,8.29
2019-03-24T06:53:49.129Z,8.33
2019-03-24T06:54:49.220Z,8.29
2019-03-24T06:55:49.133Z,8.38
2019-03-24T06:56:49.112Z,8.29
2019-03-24T06:57:49.086Z,8.34
2019-03-24T06:58:49.071Z,8.41
2019-03-24T06:59:49.059Z,8.38
2019-03-24T07:00:49.046Z,8.36
2019-03-24T07:01:49.035Z,8.38
2019-03-24T07:02:49.030Z,8.36
2019-03-24T07:03:49.016Z,8.41
2019-03-24T07:04:49.004Z,8.38
2019-03-24T07:05:48.999Z,8.50
2019-03-24T07:06:49.053Z,8.47
2019-03-24T07:07:48.995Z,8.52
2019-03-24T07:08:48.972Z,8.50
2019-03-24T07:09:48.965Z,8.47
2019-03-24T07:10:48.937Z,8.61
2019-03-24T07:11:48.926Z,8.62
2019-03-24T07:12:48.928Z,8.62
2019-03-24T07:13:48.899Z,8.62
2019-03-24T07:14:48.887Z,8.74
2019-03-24T07:15:48.876Z,8.77
2019-03-24T07:16:48.874Z,8.77
2019-03-24T07:17:48.865Z,8.70
2019-03-24T07:18:48.866Z,8.92
2019-03-24T07:19:48.836Z,8.94
2019-03-24T07:20:48.819Z,8.98
2019-03-24T07:21:48.809Z,8.91
2019-03-24T07:22:48.818Z,9.10
2019-03-24T07:23:48.786Z,8.92
2019-03-24T07:24:48.773Z,9.01
2019-03-24T07:25:48.778Z,9.02
2019-03-24T07:26:48.789Z,9.05
2019-03-24T07:27:48.756Z,9.04
2019-03-24T07:28:48.733Z,9.11
2019-03-24T07:29:48.720Z,9.17
2019-03-24T07:30:48.709Z,9.21
2019-03-24T07:31:48.694Z,9.31
2019-03-24T07:32:48.766Z,9.26
2019-03-24T07:33:48.688Z,9.33
2019-03-24T07:34:48.669Z,9.35
2019-03-24T07:35:48.658Z,9.40
2019-03-24T07:36:48.640Z,9.48
2019-03-24T07:37:48.648Z,9.64
2019-03-24T07:38:48.618Z,9.54
2019-03-24T07:39:48.664Z,9.61
2019-03-24T07:40:48.614Z,9.51
2019-03-24T07:41:48.591Z,9.50
2019-03-24T07:42:48.793Z,9.61
2019-03-24T07:43:48.571Z,9.69
2019-03-24T07:44:48.548Z,9.64
2019-03-24T07:45:48.571Z,9.71
2019-03-24T07:46:48.555Z,9.78
2019-03-24T07:47:49.182Z,9.75
2019-03-24T07:48:48.517Z,9.89
2019-03-24T07:49:48.495Z,10.01
2019-03-24T07:50:48.540Z,10.07
2019-03-24T07:51:48.476Z,10.27
2019-03-24T07:52:48.474Z,10.34
2019-03-24T07:53:48.465Z,10.48
2019-03-24T07:54:48.446Z,10.64
2019-03-24T07:55:48.423Z,10.86
2019-03-24T07:56:48.439Z,11.10
2019-03-24T07:57:48.411Z,11.42
2019-03-24T07:58:48.419Z,11.65
2019-03-24T07:59:48.399Z,11.73
2019-03-24T08:00:48.524Z,12.01
2019-03-24T08:01:48.363Z,12.21
2019-03-24T08:02:51.310Z,12.42
2019-03-24T08:03:48.353Z,12.52
2019-03-24T08:04:48.331Z,12.60
2019-03-24T08:05:48.315Z,12.60
2019-03-24T08:06:48.357Z,12.68
2019-03-24T08:07:48.317Z,12.90
2019-03-24T08:08:48.300Z,13.07
2019-03-24T08:09:48.301Z,13.05
2019-03-24T08:10:48.272Z,13.14
2019-03-24T08:11:48.248Z,13.38
2019-03-24T08:12:48.319Z,13.49
2019-03-24T08:13:53.658Z,13.54
2019-03-24T08:14:49.267Z,13.59
2019-03-24T08:15:48.210Z,13.49
2019-03-24T08:16:48.190Z,13.64
2019-03-24T08:17:48.188Z,13.30
2019-03-24T08:18:48.204Z,13.17
2019-03-24T08:19:48.156Z,13.33
2019-03-24T08:20:48.148Z,13.05
2019-03-24T08:21:48.142Z,13.05
2019-03-24T08:22:48.123Z,13.19
2019-03-24T08:23:48.138Z,13.38
2019-03-24T08:24:48.096Z,13.51
2019-03-24T08:25:48.091Z,13.60
2019-03-24T08:26:48.076Z,13.81
2019-03-24T08:27:48.076Z,13.96
2019-03-24T08:28:48.063Z,13.97
2019-03-24T08:29:48.055Z,14.09
2019-03-24T08:30:48.031Z,14.33
2019-03-24T08:31:48.088Z,14.22
2019-03-24T08:32:48.011Z,13.97
2019-03-24T08:33:48.125Z,13.82
2019-03-24T08:34:48.520Z,13.57
2019-03-24T08:35:47.973Z,13.51
2019-03-24T08:36:47.964Z,13.62
2019-03-24T08:37:47.956Z,13.85
2019-03-24T08:38:47.998Z,14.07
2019-03-24T08:39:47.963Z,14.14
2019-03-24T08:40:47.925Z,13.67
2019-03-24T08:41:47.915Z,13.59
2019-03-24T08:42:47.894Z,13.66
2019-03-24T08:43:47.887Z,13.96
2019-03-24T08:44:47.892Z,14.18
2019-03-24T08:45:47.891Z,14.29
2019-03-24T08:46:47.850Z,14.43
2019-03-24T08:47:47.883Z,14.61
2019-03-24T08:48:47.831Z,14.12
2019-03-24T08:49:47.862Z,13.87
2019-03-24T08:50:47.919Z,13.96
2019-03-24T08:51:47.797Z,14.03
2019-03-24T08:52:47.783Z,14.07
2019-03-24T08:53:47.779Z,14.40
2019-03-24T08:54:47.768Z,14.47
2019-03-24T08:55:47.774Z,14.60
2019-03-24T08:56:47.736Z,14.84
2019-03-24T08:57:47.737Z,14.92
2019-03-24T08:58:47.802Z,15.09
2019-03-24T08:59:47.708Z,15.21
2019-03-24T09:00:47.716Z,15.29
2019-03-24T09:01:47.718Z,15.46
2019-03-24T09:02:47.666Z,15.49
2019-03-24T09:03:47.655Z,15.50
2019-03-24T09:04:47.652Z,15.35
2019-03-24T09:05:47.635Z,15.29
2019-03-24T09:06:47.635Z,15.47
2019-03-24T09:07:47.610Z,15.50
2019-03-24T09:08:48.983Z,15.50
2019-03-24T09:09:47.625Z,15.28
2019-03-24T09:10:47.580Z,14.95
2019-03-24T09:11:47.567Z,14.88
2019-03-24T09:12:47.557Z,14.84
2019-03-24T09:13:47.569Z,15.09
2019-03-24T09:14:47.531Z,15.47
2019-03-24T09:15:47.524Z,15.56
2019-03-24T09:16:47.524Z,15.75
2019-03-24T09:17:47.626Z,15.90
2019-03-24T09:18:52.535Z,15.83
2019-03-24T09:19:48.470Z,15.71
2019-03-24T09:20:47.511Z,15.53
2019-03-24T09:21:47.556Z,15.16
2019-03-24T09:22:47.515Z,15.11
2019-03-24T09:23:47.561Z,15.11
2019-03-24T09:24:47.459Z,15.21
2019-03-24T09:25:47.407Z,15.39
2019-03-24T09:26:47.394Z,15.51
2019-03-24T09:27:47.396Z,15.69
2019-03-24T09:28:47.382Z,15.90
2019-03-24T09:29:47.365Z,16.01
2019-03-24T09:30:47.367Z,16.14
2019-03-24T09:31:47.348Z,16.27
2019-03-24T09:32:47.332Z,16.49
2019-03-24T09:33:47.320Z,16.67
2019-03-24T09:34:47.322Z,16.60
2019-03-24T09:35:47.299Z,16.45
2019-03-24T09:36:47.283Z,16.70
2019-03-24T09:37:47.271Z,16.73
2019-03-24T09:38:47.260Z,16.60
2019-03-24T09:39:47.257Z,16.82
2019-03-24T09:40:47.243Z,17.11
2019-03-24T09:41:47.226Z,17.22
2019-03-24T09:42:47.213Z,17.31
2019-03-24T09:43:47.203Z,17.26
2019-03-24T09:44:47.199Z,17.08
2019-03-24T09:45:47.200Z,17.03
2019-03-24T09:46:47.167Z,16.93
2019-03-24T09:47:47.165Z,17.07
2019-03-24T09:48:47.150Z,17.12
2019-03-24T09:49:47.134Z,17.26
2019-03-24T09:50:47.133Z,17.31
2019-03-24T09:51:47.113Z,17.52
2019-03-24T09:52:47.101Z,17.70
2019-03-24T09:53:47.092Z,17.63
2019-03-24T09:54:47.112Z,17.75
2019-03-24T09:55:47.071Z,17.77
2019-03-24T09:56:47.057Z,17.36
2019-03-24T09:57:48.859Z,17.34
2019-03-24T09:58:47.035Z,17.40
2019-03-24T09:59:47.020Z,17.64
2019-03-24T10:00:47.027Z,17.84
2019-03-24T10:01:47.007Z,17.41
2019-03-24T10:02:47.016Z,17.41
2019-03-24T10:03:46.983Z,17.30
2019-03-24T10:04:46.979Z,17.66
2019-03-24T10:05:46.984Z,17.74
2019-03-24T10:06:46.944Z,17.58
2019-03-24T10:07:46.994Z,17.49
2019-03-24T10:08:47.544Z,17.33
2019-03-24T10:09:46.909Z,17.46
2019-03-24T10:10:46.928Z,17.31
2019-03-24T10:11:49.039Z,17.49
2019-03-24T10:12:46.877Z,17.41
2019-03-24T10:13:46.862Z,17.62
2019-03-24T10:14:46.854Z,17.56
2019-03-24T10:15:46.850Z,17.46
2019-03-24T10:16:46.834Z,17.21
2019-03-24T10:17:46.835Z,17.14
2019-03-24T10:18:46.810Z,16.75
2019-03-24T10:19:46.794Z,16.86
2019-03-24T10:20:46.791Z,16.76
2019-03-24T10:21:46.786Z,16.58
2019-03-24T10:22:46.761Z,16.52
2019-03-24T10:23:46.754Z,16.57
2019-03-24T10:24:47.425Z,16.70
2019-03-24T10:25:46.750Z,16.94
2019-03-24T10:26:46.732Z,17.23
2019-03-24T10:27:46.713Z,17.21
2019-03-24T10:28:46.696Z,17.30
2019-03-24T10:29:46.701Z,17.26
2019-03-24T10:30:46.704Z,17.22
2019-03-24T10:31:46.716Z,17.28
2019-03-24T10:32:46.659Z,17.41
2019-03-24T10:33:46.661Z,17.44
2019-03-24T10:34:46.625Z,17.58
2019-03-24T10:35:46.616Z,17.44
2019-03-24T10:36:46.630Z,17.22
2019-03-24T10:37:46.594Z,17.22
2019-03-24T10:38:46.582Z,17.11
2019-03-24T10:39:46.586Z,17.11
2019-03-24T10:40:46.558Z,17.00
2019-03-24T10:41:46.565Z,16.81
2019-03-24T10:42:46.536Z,16.78
2019-03-24T10:43:46.522Z,16.81
2019-03-24T10:44:46.512Z,16.85
2019-03-24T10:45:46.504Z,17.06
2019-03-24T10:46:46.488Z,17.01
2019-03-24T10:47:46.482Z,16.97
2019-03-24T10:48:46.466Z,17.11
2019-03-24T10:49:46.460Z,17.08
2019-03-24T10:50:46.446Z,16.88
2019-03-24T10:51:46.434Z,16.89
2019-03-24T10:52:46.428Z,16.89
2019-03-24T10:53:46.411Z,16.86
2019-03-24T10:54:46.416Z,17.18
2019-03-24T10:55:46.387Z,17.34
2019-03-24T10:56:46.377Z,17.33
2019-03-24T10:57:46.375Z,17.68
2019-03-24T10:58:46.355Z,17.82
2019-03-24T10:59:46.344Z,17.62
2019-03-24T11:00:46.337Z,17.71
2019-03-24T11:01:46.322Z,17.97
2019-03-24T11:02:46.325Z,18.26
2019-03-24T11:03:46.298Z,18.48
2019-03-24T11:04:46.287Z,18.45
2019-03-24T11:05:46.277Z,18.52
2019-03-24T11:07:03.783Z,18.80
2019-03-24T11:08:19.671Z,18.92
2019-03-24T11:09:19.614Z,19.00
2019-03-24T11:10:19.576Z,18.99
2019-03-24T11:11:19.537Z,18.80
2019-03-24T11:12:19.510Z,18.17
2019-03-24T11:13:19.459Z,17.90
2019-03-24T11:14:19.422Z,18.05
2019-03-24T11:15:19.377Z,18.20
2019-03-24T11:16:19.337Z,18.18
2019-03-24T11:17:19.304Z,18.02
2019-03-24T11:18:19.246Z,18.11
2019-03-24T11:19:35.056Z,18.15
2019-03-24T11:21:34.447Z,18.30
2019-03-24T11:22:34.433Z,18.35
2019-03-24T11:23:34.398Z,18.26
2019-03-24T11:24:34.399Z,18.29
2019-03-24T11:25:34.399Z,18.17
2019-03-24T11:26:34.372Z,18.30
2019-03-24T11:27:34.360Z,18.32
2019-03-24T11:28:34.358Z,18.03
2019-03-24T11:29:34.332Z,17.86
2019-03-24T11:30:34.326Z,17.74
2019-03-24T11:31:34.312Z,17.78
2019-03-24T11:32:39.320Z,17.87
2019-03-24T11:33:34.300Z,18.21
2019-03-24T11:34:34.276Z,18.41
2019-03-24T11:35:34.271Z,18.62
2019-03-24T11:36:34.258Z,18.72
2019-03-24T11:37:34.258Z,18.88
2019-03-24T11:38:34.254Z,19.10
2019-03-24T11:39:34.229Z,19.10
2019-03-24T11:40:34.212Z,19.28
2019-03-24T11:41:34.205Z,19.59
2019-03-24T11:42:34.220Z,19.58
2019-03-24T11:43:39.232Z,19.58
2019-03-24T11:44:34.896Z,19.71
2019-03-24T11:45:34.162Z,19.54
2019-03-24T11:46:34.141Z,19.14
2019-03-24T11:47:34.151Z,18.85
2019-03-24T11:48:34.135Z,18.80
2019-03-24T11:49:34.120Z,18.82
2019-03-24T11:50:34.099Z,18.65
2019-03-24T11:51:34.083Z,18.65
2019-03-24T11:52:34.076Z,18.76
2019-03-24T11:53:34.061Z,18.87
2019-03-24T11:54:39.085Z,18.65
2019-03-24T11:55:34.058Z,18.44
2019-03-24T11:56:34.028Z,18.18
2019-03-24T11:57:34.014Z,18.11
2019-03-24T11:58:34.023Z,18.03
2019-03-24T11:59:34.005Z,18.15
2019-03-24T12:00:33.982Z,18.27
2019-03-24T12:01:38.173Z,18.42
2019-03-24T12:02:33.958Z,18.39
2019-03-24T12:03:33.955Z,18.21
2019-03-24T12:04:33.948Z,18.14
2019-03-24T12:05:38.959Z,18.08
2019-03-24T12:06:33.919Z,18.15
2019-03-24T12:07:33.900Z,17.72
2019-03-24T12:08:33.890Z,17.87
2019-03-24T12:09:33.901Z,18.03
2019-03-24T12:10:33.867Z,18.17
2019-03-24T12:11:33.856Z,18.14
2019-03-24T12:12:33.855Z,18.29
2019-03-24T12:13:33.837Z,18.44
2019-03-24T12:14:33.846Z,18.47
2019-03-24T12:15:33.811Z,18.48
2019-03-24T12:16:38.824Z,18.60
2019-03-24T12:17:33.788Z,18.67
2019-03-24T12:18:33.776Z,18.84
2019-03-24T12:19:33.767Z,18.95
2019-03-24T12:20:33.771Z,19.11
2019-03-24T12:21:33.745Z,18.92
2019-03-24T12:22:33.738Z,19.06
2019-03-24T12:23:33.721Z,18.84
2019-03-24T12:24:33.714Z,19.11
2019-03-24T12:25:33.711Z,19.39
2019-03-24T12:26:33.693Z,19.23
2019-03-24T12:27:38.697Z,19.36
2019-03-24T12:28:33.665Z,19.41
2019-03-24T12:29:33.662Z,19.63
2019-03-24T12:30:33.659Z,19.61
2019-03-24T12:31:33.647Z,19.84
2019-03-24T12:32:33.619Z,19.81
2019-03-24T12:33:33.630Z,19.68
2019-03-24T12:34:33.608Z,19.73
2019-03-24T12:35:33.603Z,19.65
2019-03-24T12:36:33.577Z,19.73
2019-03-24T12:37:33.564Z,19.59
2019-03-24T12:38:38.580Z,19.61
2019-03-24T12:39:33.543Z,19.54
2019-03-24T12:40:33.546Z,19.28
2019-03-24T12:41:33.522Z,19.08
2019-03-24T12:42:33.509Z,19.18
2019-03-24T12:43:33.496Z,19.44
2019-03-24T12:44:33.486Z,19.51
2019-03-24T12:45:33.825Z,19.50
2019-03-24T12:46:33.465Z,19.48
2019-03-24T12:47:33.459Z,19.44
2019-03-24T12:48:33.440Z,19.29
2019-03-24T12:49:38.470Z,19.04
2019-03-24T12:50:33.435Z,19.06
2019-03-24T12:51:33.435Z,18.99
2019-03-24T12:52:33.402Z,18.95
2019-03-24T12:53:33.386Z,18.54
2019-03-24T12:54:33.386Z,18.55
2019-03-24T12:55:33.361Z,18.70
2019-03-24T12:56:33.365Z,18.95
2019-03-24T12:57:33.341Z,18.66
2019-03-24T12:58:33.331Z,18.44
2019-03-24T12:59:33.320Z,18.32
2019-03-24T13:00:38.327Z,18.07
2019-03-24T13:01:33.299Z,17.90
2019-03-24T13:02:33.284Z,18.00
2019-03-24T13:03:35.749Z,17.89
2019-03-24T13:04:33.271Z,17.77
2019-03-24T13:05:33.254Z,17.64
2019-03-24T13:06:33.242Z,17.41
2019-03-24T13:07:33.269Z,17.37
2019-03-24T13:08:33.219Z,17.43
2019-03-24T13:09:33.747Z,17.41